Flight Track Log - Related Links

Times and Time Zones

All times are in EDT time to prevent confusion due to time zone crossing. See the N87SA flight status page for this flight to view local times or setup timezone preferences in your user account.

Time Position Orientation Groundspeed Altitude Reporting Facility
EDT Latitude Longitude Course Direction KTS MPH feet Rate Location/Type
Sun 06:31:41 PM 17.3667 -63.3833 251° West 170 196 13,100  Level San Center
Sun 06:32:41 PM 17.3500 -63.4333 251° West 190 219 14,100 950 Climbing San Center
Sun 06:33:41 PM 17.3333 -63.4833 251° West 180 207 15,000 942 Climbing San Center
Sun 06:34:42 PM 17.3167 -63.5333 251° West 180 207 16,000 992 Climbing San Center
Sun 06:35:42 PM 17.3000 -63.5833 251° West 170 196 17,000 850 Climbing San Center
Sun 06:36:42 PM 17.2833 -63.6333 251° West 190 219 17,700 744 Climbing San Center
Sun 06:37:43 PM 17.2667 -63.6833 251° West 170 196 18,500 793 Climbing San Center
Sun 06:38:43 PM 17.2500 -63.7333 251° West 190 219 19,300 700 Climbing San Center
Sun 06:39:43 PM 17.2333 -63.7667 242° Southwest 180 207 19,900 595 Climbing San Center
Sun 06:40:44 PM 17.2000 -63.8333 242° Southwest 180 207 20,500 645 Climbing San Center
Sun 06:41:44 PM 17.1833 -63.8833 251° West 180 207 21,200 600 Climbing San Center
Sun 06:42:44 PM 17.1667 -63.9333 251° West 190 219 21,700 545 Climbing San Center
Sun 06:43:45 PM 17.1500 -63.9833 251° West 190 219 22,300 645 Climbing San Center
Sun 06:44:45 PM 17.1333 -64.0333 251° West 180 207 23,000 650 Climbing San Center
Sun 06:45:45 PM 17.1167 -64.0833 251° West 190 219 23,600 496 Climbing San Center
Sun 06:46:46 PM 17.1000 -64.1333 251° West 190 219 24,000 200 Climbing San Center
Sun 06:47:45 PM 17.0833 -64.1833 251° West 190 219 24,000  Level San Center
Sun 06:48:46 PM 17.0500 -64.2500 242° Southwest 220 253 24,000  Level San Center
Sun 06:49:46 PM 17.0333 -64.3167 255° West 230 265 24,000  Level San Center
Sun 06:50:46 PM 17.0167 -64.3667 251° West 230 265 24,000  Level San Center
Sun 06:51:47 PM 16.9833 -64.4333 242° Southwest 220 253 24,000  Level San Center
Sun 06:52:47 PM 16.9667 -64.4833 251° West 230 265 24,000  Level San Center
Sun 06:53:47 PM 16.9333 -64.5500 242° Southwest 230 265 24,000  Level San Center
Sun 06:54:48 PM 16.9167 -64.6167 255° West 220 253 24,000  Level San Center
Sun 06:55:48 PM 16.9000 -64.6833 255° West 220 253 24,000  Level San Center
Sun 06:56:48 PM 16.8667 -64.7333 235° Southwest 220 253 24,000  Level San Center
Sun 06:57:49 PM 16.8500 -64.8000 255° West 230 265 24,000  Level San Center
Sun 06:58:49 PM 16.8333 -64.8500 251° West 210 242 24,000  Level San Center
Sun 06:59:49 PM 16.8000 -64.9167 242° Southwest 210 242 24,000  Level San Center
Sun 07:00:49 PM 16.7833 -64.9667 251° West 220 253 24,000  Level San Center
Sun 07:01:50 PM 16.7667 -65.0333 255° West 220 253 24,000  Level San Center
Sun 07:02:50 PM 16.7500 -65.0833 251° West 220 253 24,000  Level San Center
Sun 07:03:50 PM 16.7167 -65.1500 242° Southwest 230 265 24,000  Level San Center
Sun 07:04:51 PM 16.7000 -65.2000 251° West 180 207 24,000  Level San Center
Sun 07:05:51 PM 16.6833 -65.2500 251° West 220 253 24,000  Level San Center
Sun 07:06:51 PM 16.6500 -65.3167 242° Southwest 220 253 24,000  Level San Center
Sun 07:07:52 PM 16.6333 -65.3833 255° West 220 253 24,000  Level San Center
Sun 07:08:52 PM 16.6167 -65.4333 251° West 220 253 24,000  Level San Center
Sun 07:09:52 PM 16.5833 -65.5000 242° Southwest 230 265 24,000  Level San Center
Sun 07:10:53 PM 16.5667 -65.5667 255° West 220 253 24,000  Level San Center
Sun 07:11:53 PM 16.5333 -65.6167 235° Southwest 230 265 24,000  Level San Center
Sun 07:12:53 PM 16.5167 -65.6833 255° West 220 253 24,000  Level San Center
Sun 07:13:54 PM 16.5000 -65.7500 255° West 230 265 24,000  Level San Center
Sun 07:14:54 PM 16.4667 -65.8000 235° Southwest 220 253 24,000  Level San Center
Sun 07:15:54 PM 16.4500 -65.8667 255° West 220 253 24,000  Level San Center
Sun 07:16:55 PM 16.4333 -65.9167 251° West 220 253 24,000  Level San Center
Sun 07:17:55 PM 16.4000 -65.9833 242° Southwest 220 253 24,000  Level San Center
Sun 07:18:55 PM 16.3833 -66.0333 251° West 220 253 24,000  Level San Center
Sun 07:19:56 PM 16.3500 -66.1000 242° Southwest 220 253 24,000  Level San Center
Sun 07:20:56 PM 16.3333 -66.1667 255° West 220 253 24,000  Level San Center
Sun 07:21:56 PM 16.3167 -66.2167 251° West 220 253 24,000  Level San Center
Sun 07:22:57 PM 16.2833 -66.2833 242° Southwest 220 253 24,000  Level San Center
Sun 07:24:57 PM 16.2333 -66.4000 246° West 220 253 24,000  Level San Center
Sun 07:25:57 PM 16.2167 -66.4500 251° West 220 253 24,000  Level San Center
Sun 07:26:58 PM 16.2000 -66.5167 255° West 210 242 24,000  Level San Center
Sun 07:27:58 PM 16.1667 -66.5833 243° Southwest 210 242 24,000  Level San Center
Sun 07:28:58 PM 16.1500 -66.6333 251° West 230 265 24,000  Level San Center
Sun 07:29:59 PM 16.1167 -66.7000 243° Southwest 230 265 24,000  Level San Center
Sun 07:30:59 PM 16.1000 -66.7667 255° West 220 253 24,000  Level San Center
Sun 07:31:59 PM 16.0833 -66.8167 251° West 230 265 24,000  Level San Center
Sun 07:32:59 PM 16.0500 -66.8833 243° Southwest 220 253 24,000  Level San Center
Sun 07:34:00 PM 16.0333 -66.9333 251° West 220 253 24,000  Level San Center
Sun 07:35:00 PM 16.0000 -67.0000 243° Southwest 230 265 24,000  Level San Center
Sun 07:36:01 PM 15.9833 -67.0667 255° West 230 265 24,000  Level San Center
Sun 07:37:01 PM 15.9500 -67.1167 235° Southwest 220 253 24,000  Level San Center
Sun 07:38:01 PM 15.9333 -67.1833 255° West 230 265 24,000  Level San Center
Sun 07:39:01 PM 15.9167 -67.2500 255° West 230 265 24,000  Level San Center
Sun 07:40:01 PM 15.8833 -67.3167 243° Southwest 230 265 24,000  Level San Center
Sun 07:42:02 PM 15.8167 -67.4167 235° Southwest 240 276 24,000  Level San Center
Sun 07:43:02 PM 15.7333 -67.4167 180° South 260 299 24,000  Level San Center
Sun 07:46:00 PM 15.6160 -67.4775 207° Southwest  Level FlightAware
Sun 07:53:00 PM 15.1946 -67.6952 207° Southwest  Level FlightAware
Sun 07:54:00 PM 15.1344 -67.7262 206° Southwest  Level FlightAware
Sun 07:55:00 PM 15.0742 -67.7573 206° Southwest  Level FlightAware
Sun 07:56:00 PM 15.0140 -67.7883 206° Southwest  Level FlightAware
Sun 07:57:00 PM 14.9537 -67.8193 206° Southwest  Level FlightAware
Sun 07:58:00 PM 14.8935 -67.8502 206° Southwest  Level FlightAware
Sun 07:59:00 PM 14.8333 -67.8812 206° Southwest  Level FlightAware
Sun 08:00:00 PM 14.7730 -67.9121 206° Southwest  Level FlightAware
Sun 08:01:00 PM 14.7128 -67.9430 206° Southwest  Level FlightAware
Sun 08:02:00 PM 14.6474 -67.9753 203° Southwest  Level FlightAware
Sun 08:03:00 PM 14.5857 -68.0030 203° Southwest  Level FlightAware
Sun 08:04:00 PM 14.5240 -68.0307 203° Southwest  Level FlightAware
Sun 08:05:00 PM 14.4623 -68.0584 203° Southwest  Level FlightAware
Sun 08:06:00 PM 14.4006 -68.0861 203° Southwest  Level FlightAware
Sun 08:07:00 PM 14.3389 -68.1137 203° Southwest  Level FlightAware
Sun 08:08:00 PM 14.2773 -68.1413 203° Southwest  Level FlightAware
Sun 08:09:00 PM 14.2156 -68.1689 203° Southwest  Level FlightAware
Sun 08:10:00 PM 14.1512 -68.1845 182° South  Level FlightAware
Sun 08:11:00 PM 14.0840 -68.1869 182° South  Level FlightAware
Sun 08:12:00 PM 14.0168 -68.1893 182° South  Level FlightAware
Sun 08:13:00 PM 13.9496 -68.1917 182° South  Level FlightAware
Sun 08:14:00 PM 13.8824 -68.1941 182° South  Level FlightAware
Sun 08:15:00 PM 13.8152 -68.1965 182° South  Level FlightAware
Sun 08:16:00 PM 13.7480 -68.1989 182° South  Level FlightAware
Sun 08:17:00 PM 13.6808 -68.2021 183° South  Level FlightAware
Sun 08:18:00 PM 13.6136 -68.2061 183° South  Level FlightAware
Sun 08:19:00 PM 13.5465 -68.2100 183° South  Level FlightAware
Sun 08:20:00 PM 13.4794 -68.2140 183° South  Level FlightAware
Sun 08:21:00 PM 13.4122 -68.2173 182° South  Level FlightAware
Sun 08:22:00 PM 13.3450 -68.2195 182° South  Level FlightAware
Sun 08:23:00 PM 13.2777 -68.2217 182° South  Level FlightAware
Sun 08:24:00 PM 13.2105 -68.2239 182° South  Level FlightAware
Sun 08:25:00 PM 13.1433 -68.2260 182° South  Level FlightAware
Sun 08:26:00 PM 13.0761 -68.2282 182° South  Level FlightAware
Sun 08:27:00 PM 13.0089 -68.2304 182° South  Level FlightAware
Sun 08:28:00 PM 12.9416 -68.2325 182° South  Level FlightAware
Sun 08:29:00 PM 12.8746 -68.2375 186° South  Level FlightAware
Sun 08:30:00 PM 12.8077 -68.2442 186° South  Level FlightAware
Sun 08:31:00 PM 12.7407 -68.2500 180° South  Level FlightAware
Sun 08:32:00 PM 12.6735 -68.2500 180° South  Level FlightAware
Sun 08:33:00 PM 12.6062 -68.2500 180° South  Level FlightAware
Sun 08:34:00 PM 12.5390 -68.2500 180° South  Level FlightAware
Sun 08:35:00 PM 12.4720 -68.2561 186° South  Level FlightAware
Sun 08:36:00 PM 12.4051 -68.2628 186° South  Level FlightAware
Sun 08:37:00 PM 12.3380 -68.2667 180° South  Level FlightAware
Sun 08:38:00 PM 12.2707 -68.2667 180° South  Level FlightAware
Sun 08:39:00 PM 12.2035 -68.2667 180° South  Level FlightAware
Sun 08:40:00 PM 12.1362 -68.2667 180° South  Level FlightAware
Sun 08:41:00 PM 12.1310 -68.2685 180° South  Level Estimated
Sun 08:42:00 PM 12.1310 -68.2685 180° South  Level Estimated
Sun 08:43:00 PM 12.1310 -68.2685 180° South  Level Estimated
Sun 08:44:00 PM 12.1310 -68.2685 180° South  Level Estimated
Sun 08:45:00 PM 12.1310 -68.2685 180° South  Level Estimated
Sun 08:46:00 PM 12.1310 -68.2685 180° South  Level Estimated
Sun 08:47:00 PM 12.1310 -68.2685 180° South  Level Estimated
Sun 08:48:00 PM 12.1310 -68.2685 180° South  Level Estimated
Sun 08:49:00 PM 12.1310 -68.2685 180° South  Level Estimated
Sun 08:50:00 PM 12.1310 -68.2685 180° South  Level Estimated
Sun 08:51:00 PM 12.1310 -68.2685 180° South  Level Estimated
Sun 08:52:00 PM 12.1310 -68.2685 180° South  Level Estimated
Sun 08:53:00 PM 12.1310 -68.2685 180° South  Level Estimated
Sun 08:54:00 PM 12.1310 -68.2685 180° South  Level Estimated
Sun 08:55:00 PM 12.1310 -68.2685 180° South  Level Estimated
Sun 08:56:00 PM 12.1310 -68.2685 180° South  Level Estimated

Login

Don't have an account? Register now (free) for customized features, flight alerts, and more!